Time;durP1;ratioP1;P1;durP2;ratioP2;P2;SDS_P1;SDS_P2;PMS_P1;PMS_P2;Temp;Humidity;BMP_temperature;BMP_pressure;BME280_temperature;BME280_humidity;BME280_pressure;Samples;Min_cycle;Max_cycle;Signal;HPM_P1;HPM_P2
2023/05/02 00:00:10;;;;;;;2.80;2.53;;;13.10;97.30;;;;;;4976582;28;20182;-84
2023/05/02 00:02:35;;;;;;;2.30;2.10;;;13.10;97.30;;;;;;4967927;28;20191;-83
2023/05/02 00:05:01;;;;;;;3.37;2.50;;;13.10;97.30;;;;;;4982848;28;20410;-85
2023/05/02 00:07:27;;;;;;;3.77;2.00;;;13.00;97.30;;;;;;4972343;28;20203;-84
2023/05/02 00:09:52;;;;;;;4.23;4.00;;;13.00;97.30;;;;;;4992641;28;20213;-84
2023/05/02 00:12:18;;;;;;;1.90;1.80;;;13.00;97.30;;;;;;4984325;28;20523;-84
2023/05/02 00:14:43;;;;;;;2.57;2.37;;;12.90;97.30;;;;;;4992550;28;20188;-85
2023/05/02 00:17:17;;;;;;;6.43;2.90;;;12.90;97.30;;;;;;4980796;28;20170;-83
2023/05/02 00:19:42;;;;;;;3.23;2.63;;;12.90;97.30;;;;;;4975236;28;20194;-83
2023/05/02 00:22:08;;;;;;;3.07;2.13;;;12.80;97.30;;;;;;4976142;28;20813;-84
2023/05/02 00:24:34;;;;;;;2.00;1.80;;;12.80;97.30;;;;;;4992203;28;20270;-81
2023/05/02 00:26:59;;;;;;;8.30;3.20;;;12.80;97.30;;;;;;4988226;28;20175;-84
2023/05/02 00:29:25;;;;;;;2.20;2.00;;;12.70;97.30;;;;;;4975727;28;20190;-85
2023/05/02 00:31:50;;;;;;;3.67;2.67;;;12.70;97.30;;;;;;4967427;28;20237;-84
2023/05/02 00:34:16;;;;;;;1.83;1.77;;;12.70;97.30;;;;;;4968843;28;20223;-84
2023/05/02 00:36:41;;;;;;;3.77;2.67;;;12.60;97.30;;;;;;4944609;29;20175;-83
2023/05/02 00:39:07;;;;;;;3.90;2.73;;;12.60;97.30;;;;;;4945188;29;20214;-84
2023/05/02 00:41:32;;;;;;;9.07;2.57;;;12.50;97.30;;;;;;4954139;29;20295;-83
2023/05/02 00:43:58;;;;;;;3.90;2.83;;;12.50;97.30;;;;;;4951761;29;20564;-85
2023/05/02 00:46:23;;;;;;;2.50;2.17;;;12.40;97.30;;;;;;4937797;29;20175;-84
2023/05/02 00:48:49;;;;;;;4.03;2.80;;;12.40;97.30;;;;;;4936602;29;20191;-84
2023/05/02 00:51:15;;;;;;;2.50;2.40;;;12.30;97.30;;;;;;4947290;29;20188;-84
2023/05/02 00:53:40;;;;;;;7.50;2.10;;;12.30;97.30;;;;;;4942336;28;20190;-84
2023/05/02 00:56:08;;;;;;;2.40;2.10;;;12.30;97.30;;;;;;4953907;28;20206;-83
2023/05/02 00:58:34;;;;;;;5.33;2.47;;;12.20;97.30;;;;;;4936662;29;20212;-84
2023/05/02 01:01:40;;;;;;;3.43;2.80;;;12.20;97.30;;;;;;4944884;28;20446;-84
2023/05/02 01:04:30;;;;;;;5.17;2.90;;;12.10;97.30;;;;;;4945097;29;20493;-84
2023/05/02 01:07:15;;;;;;;3.00;2.43;;;12.10;97.30;;;;;;4952149;28;20430;-84
2023/05/02 01:10:14;;;;;;;4.20;3.60;;;12.00;97.30;;;;;;4943480;29;20598;-84
2023/05/02 01:12:57;;;;;;;3.40;2.70;;;11.90;97.30;;;;;;4933378;29;20443;-84
2023/05/02 01:15:22;;;;;;;4.13;1.70;;;11.90;97.30;;;;;;4944697;29;20975;-84
2023/05/02 01:17:51;;;;;;;3.80;2.97;;;11.80;97.30;;;;;;4966154;28;20541;-84
2023/05/02 01:20:19;;;;;;;4.23;2.20;;;11.80;97.30;;;;;;4946658;29;20660;-83
2023/05/02 01:22:46;;;;;;;1.53;1.43;;;11.70;97.30;;;;;;4950601;29;20489;-85
2023/05/02 01:25:51;;;;;;;7.60;3.70;;;11.80;97.30;;;;;;4945443;29;20526;-84
2023/05/02 01:28:25;;;;;;;3.53;2.30;;;11.70;97.30;;;;;;4934976;29;21063;-83
2023/05/02 01:30:55;;;;;;;4.07;3.10;;;11.70;97.30;;;;;;4945558;28;20423;-83
2023/05/02 01:33:24;;;;;;;2.50;2.40;;;11.60;97.30;;;;;;4944078;29;20439;-83
2023/05/02 01:35:51;;;;;;;2.50;2.30;;;11.60;97.30;;;;;;4950758;28;20474;-84
2023/05/02 01:38:18;;;;;;;5.07;2.87;;;11.60;97.30;;;;;;4943216;28;20983;-84
2023/05/02 01:40:44;;;;;;;3.33;3.17;;;11.50;97.30;;;;;;4943230;29;20717;-84
2023/05/02 01:43:12;;;;;;;7.50;2.63;;;11.50;97.30;;;;;;4932688;29;20463;-83
2023/05/02 01:45:39;;;;;;;4.03;2.70;;;11.50;97.30;;;;;;4941775;29;20428;-83
2023/05/02 01:48:07;;;;;;;8.37;3.60;;;11.50;97.30;;;;;;4932426;29;20472;-83
2023/05/02 01:50:34;;;;;;;2.67;2.47;;;11.50;97.30;;;;;;4932544;29;20435;-84
2023/05/02 01:53:03;;;;;;;3.60;3.40;;;11.40;97.30;;;;;;4940564;29;20543;-83
2023/05/02 01:55:29;;;;;;;7.90;2.30;;;11.40;97.30;;;;;;4934094;29;20792;-83
2023/05/02 01:57:56;;;;;;;2.90;2.23;;;11.50;97.30;;;;;;4932411;29;20470;-84
2023/05/02 02:00:24;;;;;;;2.80;2.33;;;11.40;97.30;;;;;;4931374;29;20509;-84
2023/05/02 02:02:51;;;;;;;12.77;3.37;;;11.40;97.30;;;;;;4951081;28;20442;-84
2023/05/02 02:05:18;;;;;;;7.77;2.77;;;11.40;97.30;;;;;;4938426;29;20506;-84
2023/05/02 02:07:45;;;;;;;4.43;2.70;;;11.40;97.30;;;;;;4949887;29;21008;-84
2023/05/02 02:10:11;;;;;;;4.27;3.63;;;11.30;97.30;;;;;;4939745;29;20428;-84
2023/05/02 02:13:06;;;;;;;26.40;2.10;;;11.30;97.30;;;;;;4940366;29;20458;-84
2023/05/02 02:15:35;;;;;;;2.23;2.13;;;11.30;97.30;;;;;;4946006;29;20458;-84
2023/05/02 02:18:08;;;;;;;16.80;3.27;;;11.40;97.30;;;;;;4948382;28;20459;-85
2023/05/02 02:20:35;;;;;;;3.90;2.80;;;11.40;97.30;;;;;;4933197;29;20544;-85
2023/05/02 02:23:05;;;;;;;3.93;2.50;;;11.40;97.30;;;;;;4943047;29;20447;-84
2023/05/02 02:25:32;;;;;;;6.00;3.27;;;11.40;97.30;;;;;;4943754;29;20426;-84
2023/05/02 02:27:58;;;;;;;9.43;2.70;;;11.40;97.30;;;;;;4952352;28;20473;-84
2023/05/02 02:30:23;;;;;;;2.97;2.23;;;11.40;97.30;;;;;;4951665;28;20482;-84
2023/05/02 02:32:49;;;;;;;3.67;2.37;;;11.50;97.30;;;;;;4950969;29;20218;-84
2023/05/02 02:35:15;;;;;;;2.70;2.13;;;11.50;97.30;;;;;;4945354;28;20231;-84
2023/05/02 02:37:51;;;;;;;2.23;2.03;;;11.50;97.30;;;;;;4948213;29;20266;-84
2023/05/02 02:40:27;;;;;;;2.07;1.63;;;11.50;97.30;;;;;;4951514;29;20189;-83
2023/05/02 02:43:19;;;;;;;1.93;1.83;;;11.50;97.30;;;;;;4949141;29;20998;-84
2023/05/02 02:45:58;;;;;;;2.60;2.40;;;11.50;97.30;;;;;;4940957;29;20434;-86
2023/05/02 02:48:33;;;;;;;2.60;2.40;;;11.50;97.30;;;;;;4944774;28;20482;-84
2023/05/02 02:51:27;;;;;;;1.77;1.50;;;11.50;97.30;;;;;;4954103;28;20414;-83
2023/05/02 02:54:12;;;;;;;4.80;2.30;;;11.50;97.30;;;;;;4944127;29;20418;-84
2023/05/02 02:56:40;;;;;;;2.43;2.23;;;11.50;97.30;;;;;;4936333;29;20459;-84
2023/05/02 02:59:19;;;;;;;3.07;2.83;;;11.50;97.30;;;;;;4936002;28;20498;-86
2023/05/02 03:01:52;;;;;;;2.40;2.20;;;11.50;97.30;;;;;;4944047;28;20862;-84
2023/05/02 03:04:20;;;;;;;2.67;2.23;;;11.50;97.30;;;;;;4936137;29;20416;-84
2023/05/02 03:06:46;;;;;;;1.93;1.63;;;11.50;97.30;;;;;;4944542;29;20432;-84
2023/05/02 03:09:17;;;;;;;3.07;2.13;;;11.50;97.30;;;;;;4944535;29;20420;-83
2023/05/02 03:11:45;;;;;;;3.87;3.03;;;11.50;97.30;;;;;;4937049;29;20216;-85
2023/05/02 03:14:10;;;;;;;9.60;3.43;;;11.50;97.30;;;;;;4948527;29;20489;-84
2023/05/02 03:16:37;;;;;;;2.33;2.13;;;11.50;97.30;;;;;;4948337;29;20941;-84
2023/05/02 03:19:03;;;;;;;4.47;2.47;;;11.50;97.30;;;;;;4947242;29;20309;-84
2023/05/02 03:21:33;;;;;;;32.10;4.97;;;11.50;97.30;;;;;;4948709;29;20435;-85
2023/05/02 03:24:00;;;;;;;2.47;2.33;;;11.50;97.30;;;;;;4942856;29;20459;-85
2023/05/02 03:26:26;;;;;;;2.93;2.73;;;11.50;97.30;;;;;;4945868;29;20414;-86
2023/05/02 03:28:52;;;;;;;3.10;2.20;;;11.50;97.30;;;;;;4945923;29;20436;-86
2023/05/02 03:31:17;;;;;;;2.50;1.93;;;11.50;97.30;;;;;;4949886;29;20430;-85
2023/05/02 03:33:43;;;;;;;1.70;1.60;;;11.50;97.30;;;;;;4943321;29;20525;-83
2023/05/02 03:36:08;;;;;;;5.33;2.97;;;11.40;97.30;;;;;;4949257;28;20246;-84
2023/05/02 03:38:34;;;;;;;5.23;2.00;;;11.40;97.30;;;;;;4941998;29;20590;-84
2023/05/02 03:40:59;;;;;;;1.70;1.60;;;11.40;97.30;;;;;;4954161;29;20199;-84
2023/05/02 03:43:25;;;;;;;7.63;3.47;;;11.40;97.30;;;;;;4949456;29;20200;-84
2023/05/02 03:45:50;;;;;;;2.27;2.07;;;11.40;97.30;;;;;;4951860;29;20671;-84
2023/05/02 03:48:16;;;;;;;2.50;1.73;;;11.40;97.30;;;;;;4946015;29;20277;-84
2023/05/02 03:50:42;;;;;;;1.40;1.30;;;11.40;97.30;;;;;;4946425;29;20180;-84
2023/05/02 03:53:08;;;;;;;4.50;2.60;;;11.40;97.30;;;;;;4946737;29;20230;-84
2023/05/02 03:55:38;;;;;;;3.33;2.97;;;11.40;97.30;;;;;;4967169;28;20522;-83
2023/05/02 03:58:04;;;;;;;1.97;1.83;;;11.40;97.30;;;;;;4939100;29;20458;-84
2023/05/02 04:00:30;;;;;;;6.50;2.47;;;11.40;97.30;;;;;;4947730;28;20450;-84
2023/05/02 04:02:56;;;;;;;2.70;2.50;;;11.40;97.30;;;;;;4938112;29;20264;-84
2023/05/02 04:05:21;;;;;;;1.87;1.77;;;11.40;97.30;;;;;;4949173;29;20431;-86
2023/05/02 04:07:47;;;;;;;2.00;1.63;;;11.40;97.30;;;;;;4945693;29;20184;-83
2023/05/02 04:10:15;;;;;;;4.27;1.90;;;11.40;97.30;;;;;;4950311;29;20442;-84
2023/05/02 04:12:42;;;;;;;4.10;1.77;;;11.40;97.30;;;;;;4953620;29;20286;-84
2023/05/02 04:15:08;;;;;;;1.43;1.40;;;11.40;97.30;;;;;;4953806;28;20822;-84
2023/05/02 04:17:34;;;;;;;1.10;1.00;;;11.40;97.30;;;;;;4946976;29;20470;-84
2023/05/02 04:19:59;;;;;;;6.40;2.67;;;11.40;97.30;;;;;;4953688;28;20696;-84
2023/05/02 04:22:25;;;;;;;2.23;1.13;;;11.30;97.30;;;;;;4954774;29;20246;-84
2023/05/02 04:24:50;;;;;;;4.20;2.93;;;11.30;97.30;;;;;;4938088;29;20203;-85
2023/05/02 04:27:16;;;;;;;4.20;2.30;;;11.30;97.30;;;;;;4942678;29;20203;-84
2023/05/02 04:29:41;;;;;;;2.00;1.90;;;11.30;97.30;;;;;;4935218;29;20176;-84
2023/05/02 04:32:07;;;;;;;3.80;2.23;;;11.30;97.30;;;;;;4945503;29;20691;-84
2023/05/02 04:34:32;;;;;;;1.83;1.73;;;11.40;97.30;;;;;;4959407;28;20258;-84
2023/05/02 04:37:00;;;;;;;1.90;1.80;;;11.40;97.30;;;;;;4967802;28;20268;-83
2023/05/02 04:39:25;;;;;;;3.07;1.80;;;11.40;97.30;;;;;;4974932;28;20277;-84
2023/05/02 04:41:51;;;;;;;2.13;1.60;;;11.40;97.30;;;;;;4974922;28;20539;-85
2023/05/02 04:44:16;;;;;;;2.97;2.33;;;11.40;97.30;;;;;;4988613;28;20773;-84
2023/05/02 04:46:42;;;;;;;4.30;1.63;;;11.40;97.30;;;;;;4992005;28;20185;-84
2023/05/02 04:49:09;;;;;;;11.43;3.40;;;11.40;97.30;;;;;;4975337;28;20186;-85
2023/05/02 04:51:34;;;;;;;1.87;1.47;;;11.40;97.30;;;;;;4975393;28;20204;-84
2023/05/02 04:54:00;;;;;;;9.17;1.97;;;11.50;97.30;;;;;;4967493;28;20938;-85
2023/05/02 04:56:25;;;;;;;1.20;1.13;;;11.50;97.30;;;;;;4975340;28;20185;-84
2023/05/02 04:58:51;;;;;;;1.80;1.30;;;11.50;97.30;;;;;;4982821;28;20289;-84
2023/05/02 05:01:16;;;;;;;4.97;1.47;;;11.50;97.30;;;;;;4959851;28;20261;-84
2023/05/02 05:03:42;;;;;;;1.07;1.00;;;11.60;97.30;;;;;;4984873;28;20217;-86
2023/05/02 05:06:08;;;;;;;4.63;1.57;;;11.60;97.30;;;;;;4974035;28;20265;-84
2023/05/02 05:08:33;;;;;;;1.87;1.50;;;11.60;97.30;;;;;;4986094;28;20198;-84
2023/05/02 05:10:59;;;;;;;1.40;1.30;;;11.70;97.30;;;;;;4981837;28;20277;-85
2023/05/02 05:13:24;;;;;;;2.23;2.03;;;11.70;97.30;;;;;;4979364;28;20285;-84
2023/05/02 05:15:50;;;;;;;2.70;1.80;;;11.70;97.30;;;;;;4994124;28;20189;-84
2023/05/02 05:18:15;;;;;;;2.87;2.00;;;11.80;97.30;;;;;;4971554;28;20672;-84
2023/05/02 05:20:41;;;;;;;2.00;1.83;;;11.80;97.30;;;;;;4988682;28;20177;-85
2023/05/02 05:23:06;;;;;;;2.53;2.10;;;11.80;97.30;;;;;;4992620;28;20209;-84
2023/05/02 05:25:32;;;;;;;2.90;2.63;;;11.80;97.30;;;;;;4975062;28;20670;-84
2023/05/02 05:27:59;;;;;;;6.00;2.23;;;11.90;97.30;;;;;;4973750;28;20235;-84
2023/05/02 05:30:25;;;;;;;2.03;1.83;;;11.90;97.30;;;;;;4978172;28;20425;-84
2023/05/02 05:32:50;;;;;;;1.50;1.40;;;11.90;97.30;;;;;;4991068;28;20449;-84
2023/05/02 05:35:16;;;;;;;1.60;1.50;;;11.90;97.30;;;;;;4974702;28;20225;-86
2023/05/02 05:37:42;;;;;;;1.97;1.83;;;11.90;97.30;;;;;;4987324;28;20177;-84
2023/05/02 05:40:08;;;;;;;2.50;1.77;;;12.00;97.30;;;;;;4990793;28;20186;-85
2023/05/02 05:42:34;;;;;;;4.50;2.30;;;11.90;97.30;;;;;;4970985;28;20448;-84
2023/05/02 05:45:09;;;;;;;2.60;1.53;;;12.00;97.30;;;;;;5098403;27;20535;-85
2023/05/02 05:47:34;;;;;;;2.83;1.77;;;12.00;97.30;;;;;;5099369;28;20801;-85
2023/05/02 05:50:00;;;;;;;1.97;1.87;;;12.00;97.30;;;;;;5091556;28;20469;-86
2023/05/02 05:52:25;;;;;;;2.20;1.90;;;12.00;97.30;;;;;;5099502;28;20399;-86
2023/05/02 05:54:55;;;;;;;1.63;1.53;;;12.00;97.30;;;;;;5093753;28;20208;-86
2023/05/02 05:57:21;;;;;;;8.07;2.13;;;12.00;97.30;;;;;;5087552;28;20662;-87
2023/05/02 05:59:47;;;;;;;4.57;2.63;;;12.00;97.30;;;;;;5095388;28;20461;-87
2023/05/02 06:02:13;;;;;;;1.27;1.17;;;12.00;97.30;;;;;;5080764;28;20445;-85
2023/05/02 06:04:39;;;;;;;7.67;2.30;;;12.10;97.30;;;;;;5087604;28;20213;-85
2023/05/02 06:07:04;;;;;;;1.43;1.33;;;12.10;97.30;;;;;;5087756;28;20215;-85
2023/05/02 06:09:30;;;;;;;1.87;1.50;;;12.10;97.30;;;;;;5088419;28;20171;-85
2023/05/02 06:11:55;;;;;;;5.80;2.17;;;12.10;97.30;;;;;;5097080;28;20677;-83
2023/05/02 06:14:21;;;;;;;4.10;2.97;;;12.10;97.30;;;;;;5088351;28;20224;-86
2023/05/02 06:16:46;;;;;;;3.20;2.00;;;12.10;97.30;;;;;;5098378;28;20286;-84
2023/05/02 06:19:12;;;;;;;3.50;3.13;;;12.20;97.30;;;;;;5106222;28;20212;-90
2023/05/02 06:21:37;;;;;;;2.60;2.40;;;12.20;97.30;;;;;;5087266;28;20260;-85
2023/05/02 06:24:03;;;;;;;3.37;2.53;;;12.20;97.30;;;;;;5092797;28;20217;-85
2023/05/02 06:26:29;;;;;;;2.53;2.37;;;12.20;97.30;;;;;;5086363;28;20197;-83
2023/05/02 06:28:54;;;;;;;11.70;2.67;;;12.20;97.30;;;;;;5090037;28;20848;-85
2023/05/02 06:31:20;;;;;;;1.60;1.50;;;12.20;97.30;;;;;;5086533;28;20221;-86
2023/05/02 06:33:45;;;;;;;2.60;2.03;;;12.20;97.30;;;;;;5094439;28;20668;-83
2023/05/02 06:36:11;;;;;;;1.87;1.70;;;12.30;97.30;;;;;;5096630;28;20595;-86
2023/05/02 06:38:36;;;;;;;5.47;3.70;;;12.30;97.30;;;;;;5082999;28;20277;-85
2023/05/02 06:41:02;;;;;;;2.70;2.50;;;12.30;97.30;;;;;;5087682;28;20688;-85
2023/05/02 06:43:28;;;;;;;3.43;2.23;;;12.40;97.30;;;;;;5087346;28;20226;-86
2023/05/02 06:45:57;;;;;;;9.90;4.93;;;12.40;97.30;;;;;;5097242;28;20189;-82
2023/05/02 06:48:23;;;;;;;7.90;3.50;;;12.40;97.30;;;;;;5098323;28;20175;-84
2023/05/02 06:50:50;;;;;;;2.47;2.27;;;12.40;97.30;;;;;;5080368;28;20487;-85
2023/05/02 06:53:16;;;;;;;2.93;1.70;;;12.40;97.30;;;;;;5081351;28;20200;-84
2023/05/02 06:55:43;;;;;;;2.60;1.87;;;12.30;97.30;;;;;;5093133;28;20966;-84
2023/05/02 06:58:08;;;;;;;2.57;1.77;;;12.40;97.30;;;;;;5081019;28;20191;-80
2023/05/02 07:00:34;;;;;;;6.30;4.30;;;12.40;97.30;;;;;;5090300;28;20431;-83
2023/05/02 07:02:59;;;;;;;1.90;1.67;;;12.50;97.30;;;;;;5089409;28;20206;-85
2023/05/02 07:05:25;;;;;;;3.77;2.70;;;12.50;97.30;;;;;;5077269;28;20554;-81
2023/05/02 07:07:50;;;;;;;5.83;2.60;;;12.50;97.30;;;;;;5085170;28;20660;-81
2023/05/02 07:10:16;;;;;;;2.20;2.10;;;12.50;97.30;;;;;;5076516;28;20266;-81
2023/05/02 07:12:41;;;;;;;4.20;2.40;;;12.60;97.30;;;;;;5083097;28;20265;-81
2023/05/02 07:15:07;;;;;;;3.30;2.37;;;12.60;97.30;;;;;;5086102;28;20186;-84
2023/05/02 07:17:33;;;;;;;2.23;2.03;;;12.60;97.30;;;;;;5076583;28;20562;-83
2023/05/02 07:19:58;;;;;;;2.23;2.00;;;12.60;97.30;;;;;;5077437;28;20202;-82
2023/05/02 07:22:26;;;;;;;11.20;4.20;;;12.60;97.30;;;;;;5076648;28;20623;-84
2023/05/02 07:25:01;;;;;;;4.60;3.73;;;12.60;97.30;;;;;;5083070;28;20217;-84
2023/05/02 07:27:26;;;;;;;4.73;1.60;;;12.60;97.30;;;;;;5074912;28;20412;-81
2023/05/02 07:29:52;;;;;;;6.17;3.73;;;12.60;97.30;;;;;;5076325;28;20845;-81
2023/05/02 07:32:21;;;;;;;10.50;4.67;;;12.60;97.30;;;;;;5081387;28;20794;-82
2023/05/02 07:34:47;;;;;;;3.23;1.77;;;12.70;97.30;;;;;;5082395;28;20417;-82
2023/05/02 07:37:15;;;;;;;2.53;2.33;;;12.90;97.30;;;;;;5086581;28;20947;-81
2023/05/02 07:39:41;;;;;;;5.23;2.80;;;13.00;97.30;;;;;;5086529;28;20179;-82
2023/05/02 07:42:06;;;;;;;3.53;1.93;;;13.00;97.30;;;;;;5088578;28;21021;-82
2023/05/02 07:44:33;;;;;;;7.97;3.70;;;13.10;97.30;;;;;;5085243;28;20282;-82
2023/05/02 07:46:59;;;;;;;9.60;2.97;;;13.00;97.30;;;;;;5086247;28;20179;-82
2023/05/02 07:49:24;;;;;;;7.43;3.20;;;13.00;97.30;;;;;;5083178;28;20405;-81
2023/05/02 07:51:50;;;;;;;4.53;2.80;;;13.00;97.30;;;;;;5090227;28;20200;-83
2023/05/02 07:54:20;;;;;;;4.27;2.80;;;13.00;97.30;;;;;;5085922;28;20179;-82
2023/05/02 07:56:46;;;;;;;5.87;3.33;;;13.00;97.30;;;;;;5085071;28;20178;-81
2023/05/02 07:59:12;;;;;;;4.53;2.60;;;12.90;97.30;;;;;;5096528;28;20444;-83
2023/05/02 08:01:39;;;;;;;4.77;2.50;;;12.90;97.30;;;;;;5082840;28;20211;-82
2023/05/02 08:04:04;;;;;;;5.53;3.33;;;12.90;97.30;;;;;;5085716;28;20206;-82
2023/05/02 08:06:31;;;;;;;4.97;4.53;;;12.90;97.30;;;;;;5076690;28;20446;-82
2023/05/02 08:08:57;;;;;;;3.60;3.40;;;13.00;97.30;;;;;;5094614;28;20182;-82
2023/05/02 08:11:24;;;;;;;7.97;5.53;;;13.00;97.30;;;;;;5077061;28;20444;-82
2023/05/02 08:13:50;;;;;;;5.37;3.77;;;13.10;97.30;;;;;;5077135;28;20284;-82
2023/05/02 08:16:16;;;;;;;7.80;3.60;;;13.10;97.30;;;;;;5076537;28;20421;-81
2023/05/02 08:18:41;;;;;;;4.80;4.00;;;13.10;97.30;;;;;;5077009;28;20429;-83
2023/05/02 08:21:07;;;;;;;6.50;4.53;;;13.10;97.30;;;;;;5077467;28;20266;-82
2023/05/02 08:23:33;;;;;;;3.20;3.00;;;13.00;97.30;;;;;;5079351;28;20199;-81
2023/05/02 08:25:58;;;;;;;9.33;3.47;;;12.90;97.30;;;;;;5085218;28;20201;-81
2023/05/02 08:28:24;;;;;;;6.17;3.83;;;12.70;97.30;;;;;;5075373;28;20183;-80
2023/05/02 08:30:49;;;;;;;13.00;5.53;;;12.50;97.30;;;;;;5073600;28;20191;-80
2023/05/02 08:33:15;;;;;;;9.23;5.20;;;12.40;97.30;;;;;;5090052;28;20854;-81
2023/05/02 08:35:40;;;;;;;15.40;6.50;;;12.30;97.30;;;;;;5081190;28;20193;-79
2023/05/02 08:38:06;;;;;;;6.33;4.50;;;12.30;97.30;;;;;;5073700;28;20187;-79
2023/05/02 08:40:35;;;;;;;9.83;5.17;;;12.30;97.30;;;;;;5070669;28;20205;-79
2023/05/02 08:43:01;;;;;;;14.00;5.33;;;12.30;97.30;;;;;;5087817;28;20238;-78
2023/05/02 08:45:36;;;;;;;9.17;5.87;;;12.30;97.30;;;;;;5068669;28;20432;-80
2023/05/02 08:48:06;;;;;;;15.50;7.43;;;12.30;97.30;;;;;;5077741;28;20423;-82
2023/05/02 08:50:35;;;;;;;13.40;6.77;;;12.30;97.30;;;;;;5077213;28;20430;-80
2023/05/02 08:53:04;;;;;;;7.40;4.17;;;12.40;97.30;;;;;;5069440;28;20472;-81
2023/05/02 08:55:29;;;;;;;12.70;5.80;;;12.40;97.30;;;;;;5069548;28;20460;-80
2023/05/02 08:57:57;;;;;;;11.67;6.97;;;12.40;97.30;;;;;;5069729;28;20460;-80
2023/05/02 09:00:23;;;;;;;6.73;5.80;;;12.50;97.30;;;;;;5088942;28;20191;-83
2023/05/02 09:03:22;;;;;;;10.20;7.63;;;12.50;97.30;;;;;;5080394;28;20432;-80
2023/05/02 09:05:53;;;;;;;10.43;6.27;;;12.50;97.30;;;;;;5080636;28;20182;-81
2023/05/02 09:08:23;;;;;;;10.90;7.77;;;12.50;97.30;;;;;;5073971;28;20419;-83
2023/05/02 09:10:49;;;;;;;18.10;5.90;;;12.60;97.30;;;;;;5081187;28;20429;-80
2023/05/02 09:13:39;;;;;;;17.83;7.60;;;12.70;97.30;;;;;;5086694;28;20450;-79
2023/05/02 09:16:07;;;;;;;8.60;5.70;;;12.90;97.30;;;;;;5073130;28;20440;-79
2023/05/02 09:18:44;;;;;;;8.63;5.90;;;13.00;97.30;;;;;;5072969;28;21021;-79
2023/05/02 09:21:15;;;;;;;14.70;6.47;;;13.10;97.30;;;;;;5074494;28;20523;-80
2023/05/02 09:23:42;;;;;;;22.90;6.70;;;13.20;97.30;;;;;;5082819;28;20530;-80
2023/05/02 09:26:18;;;;;;;8.23;6.23;;;13.40;97.30;;;;;;5092606;28;20444;-80
2023/05/02 09:28:54;;;;;;;17.97;5.23;;;13.50;97.30;;;;;;5087643;28;20795;-79
2023/05/02 09:31:22;;;;;;;12.03;7.00;;;13.50;97.30;;;;;;5080614;28;20516;-80
2023/05/02 09:33:48;;;;;;;14.60;6.93;;;13.50;97.30;;;;;;5083650;28;20452;-80
2023/05/02 09:36:15;;;;;;;9.40;6.00;;;13.70;97.30;;;;;;5080560;28;20422;-80
2023/05/02 09:38:45;;;;;;;6.90;5.80;;;14.10;97.30;;;;;;5080468;28;20421;-82
2023/05/02 09:41:12;;;;;;;10.37;5.57;;;14.20;97.30;;;;;;5081595;28;20413;-78
2023/05/02 09:43:38;;;;;;;8.23;4.30;;;14.20;97.30;;;;;;5082710;28;20483;-77
2023/05/02 09:46:08;;;;;;;9.83;6.60;;;14.20;97.30;;;;;;5082933;28;20505;-79
2023/05/02 09:48:54;;;;;;;9.03;5.23;;;14.10;97.30;;;;;;5081425;28;20783;-80
2023/05/02 09:51:22;;;;;;;13.63;8.50;;;14.20;97.30;;;;;;5078300;28;20417;-79
2023/05/02 09:53:48;;;;;;;7.63;4.73;;;14.20;97.30;;;;;;5084613;28;20518;-81
2023/05/02 09:56:14;;;;;;;13.20;8.03;;;14.10;97.30;;;;;;5083030;28;20481;-80
2023/05/02 09:58:40;;;;;;;7.13;5.47;;;14.10;97.30;;;;;;5087348;28;20911;-81
2023/05/02 10:01:05;;;;;;;11.03;5.67;;;14.10;97.30;;;;;;5095064;28;20428;-82
2023/05/02 10:03:35;;;;;;;16.70;9.13;;;14.20;97.30;;;;;;5084390;28;20203;-80
2023/05/02 10:06:01;;;;;;;9.97;5.43;;;14.20;97.30;;;;;;5071792;28;20183;-82
2023/05/02 10:08:27;;;;;;;9.10;5.50;;;14.20;97.30;;;;;;5083484;28;20410;-80
2023/05/02 10:10:57;;;;;;;11.80;7.87;;;14.20;97.30;;;;;;5074467;28;20920;-81
2023/05/02 10:13:31;;;;;;;7.57;6.30;;;14.20;97.30;;;;;;5086064;28;20978;-81
2023/05/02 10:16:00;;;;;;;5.20;4.00;;;14.20;97.30;;;;;;5087516;28;20456;-81
2023/05/02 10:18:47;;;;;;;9.17;5.33;;;14.30;97.30;;;;;;5071102;28;20427;-80
2023/05/02 10:21:19;;;;;;;10.70;5.97;;;14.50;97.30;;;;;;5088219;28;20417;-81
2023/05/02 10:23:45;;;;;;;5.97;4.53;;;14.70;97.30;;;;;;5091210;28;21186;-82
2023/05/02 10:26:15;;;;;;;4.63;3.57;;;14.80;97.30;;;;;;5086479;28;20444;-81
2023/05/02 10:28:41;;;;;;;8.20;4.80;;;15.00;97.30;;;;;;5092617;28;20973;-80
2023/05/02 10:31:23;;;;;;;15.10;4.13;;;15.10;97.30;;;;;;5128271;22;20593;-86
2023/05/02 10:33:54;;;;;;;9.40;2.80;;;15.30;97.30;;;;;;5046017;28;20431;-85
2023/05/02 10:36:24;;;;;;;5.03;3.03;;;15.40;97.10;;;;;;5035106;28;20427;-84
2023/05/02 10:39:05;;;;;;;8.67;3.97;;;15.40;97.30;;;;;;5034369;28;20429;-85
2023/05/02 10:41:33;;;;;;;10.00;4.77;;;15.30;96.50;;;;;;5046715;28;20445;-86
2023/05/02 10:44:39;;;;;;;2.30;2.00;;;15.30;97.30;;;;;;5053932;28;20473;-85
2023/05/02 10:47:19;;;;;;;4.90;3.07;;;15.20;96.90;;;;;;5051110;28;20482;-84
2023/05/02 10:49:59;;;;;;;4.70;2.63;;;15.20;97.30;;;;;;5055305;28;20488;-85
2023/05/02 10:52:32;;;;;;;4.83;3.23;;;15.10;97.10;;;;;;5053938;28;20461;-84
2023/05/02 10:55:36;;;;;;;7.27;4.77;;;15.20;97.30;;;;;;5054052;28;20562;-83
2023/05/02 10:58:07;;;;;;;5.90;3.50;;;15.30;97.30;;;;;;5055331;28;20418;-85
2023/05/02 11:00:33;;;;;;;3.63;2.47;;;15.30;97.30;;;;;;5046177;28;20944;-85
2023/05/02 11:02:59;;;;;;;2.93;2.73;;;15.30;96.80;;;;;;5054886;28;20410;-85
2023/05/02 11:05:27;;;;;;;3.43;2.50;;;15.30;97.30;;;;;;5053864;28;20529;-86
2023/05/02 11:08:26;;;;;;;4.20;2.77;;;15.20;97.30;;;;;;5054076;28;20415;-86
2023/05/02 11:10:52;;;;;;;8.30;3.63;;;15.20;97.30;;;;;;5049072;28;20438;-84
2023/05/02 11:13:50;;;;;;;3.20;2.50;;;15.30;97.00;;;;;;5055002;28;20467;-86
2023/05/02 11:16:16;;;;;;;3.57;3.37;;;15.40;97.30;;;;;;5053595;28;20182;-86
2023/05/02 11:18:58;;;;;;;3.83;2.10;;;15.40;97.30;;;;;;5054242;28;20804;-86
2023/05/02 11:21:28;;;;;;;5.90;3.27;;;15.50;97.20;;;;;;5074743;28;20449;-87
2023/05/02 11:24:32;;;;;;;4.23;2.53;;;15.40;97.20;;;;;;5075828;28;20458;-87
2023/05/02 11:27:29;;;;;;;2.23;2.03;;;15.30;96.60;;;;;;5074286;28;20649;-87
2023/05/02 11:30:08;;;;;;;4.30;3.03;;;15.30;97.30;;;;;;5048880;28;20952;-83
2023/05/02 11:32:43;;;;;;;5.77;2.90;;;15.30;97.20;;;;;;5053586;28;20536;-84
2023/05/02 11:35:17;;;;;;;6.80;3.33;;;15.30;96.80;;;;;;5054002;28;20987;-85
2023/05/02 11:37:52;;;;;;;7.50;2.93;;;15.20;97.20;;;;;;5053209;28;20418;-85
2023/05/02 11:40:18;;;;;;;1.27;1.20;;;14.70;97.30;;;;;;5053089;28;21005;-86
2023/05/02 11:42:44;;;;;;;2.83;1.73;;;14.20;97.30;;;;;;5052913;28;20426;-86
2023/05/02 11:45:09;;;;;;;7.30;3.10;;;13.70;97.30;;;;;;5052695;28;20192;-85
2023/05/02 11:47:35;;;;;;;3.73;2.00;;;13.40;97.30;;;;;;5052970;28;20203;-83
2023/05/02 11:50:04;;;;;;;11.87;5.30;;;13.20;97.30;;;;;;5052097;28;20204;-85
2023/05/02 11:52:30;;;;;;;7.73;4.33;;;13.00;97.30;;;;;;5051929;28;20325;-84
2023/05/02 11:54:56;;;;;;;5.33;3.27;;;12.90;97.30;;;;;;5052583;28;20422;-85
2023/05/02 11:57:22;;;;;;;7.47;3.40;;;12.90;97.30;;;;;;5052194;28;20425;-84
2023/05/02 11:59:49;;;;;;;5.93;4.70;;;12.80;97.30;;;;;;5052070;28;20453;-84
2023/05/02 12:02:15;;;;;;;4.07;2.37;;;12.80;97.30;;;;;;5049306;28;20454;-86
2023/05/02 12:04:43;;;;;;;3.70;3.07;;;12.70;97.30;;;;;;5052173;28;20492;-86
2023/05/02 12:07:09;;;;;;;3.27;3.07;;;12.70;97.30;;;;;;5053685;28;20188;-87
2023/05/02 12:09:35;;;;;;;2.27;2.07;;;12.70;97.30;;;;;;5051950;28;20469;-87
2023/05/02 12:12:02;;;;;;;10.47;4.60;;;12.70;97.30;;;;;;5052789;28;20207;-88
2023/05/02 12:14:32;;;;;;;6.67;2.77;;;12.70;97.30;;;;;;5052333;28;20266;-87
2023/05/02 12:16:58;;;;;;;7.90;2.37;;;12.70;97.30;;;;;;5052384;28;20422;-87
2023/05/02 12:19:24;;;;;;;3.90;3.43;;;12.70;97.30;;;;;;5051982;28;20448;-86
2023/05/02 12:21:50;;;;;;;8.53;3.50;;;12.60;97.30;;;;;;5051941;28;20928;-88
2023/05/02 12:24:16;;;;;;;1.90;1.80;;;12.60;97.30;;;;;;5051666;28;20199;-87
2023/05/02 12:26:41;;;;;;;2.30;2.00;;;12.60;97.30;;;;;;5051642;28;20426;-87
2023/05/02 12:29:07;;;;;;;5.07;3.20;;;12.60;97.30;;;;;;5051742;28;20233;-87
2023/05/02 12:31:33;;;;;;;4.00;3.07;;;12.60;97.30;;;;;;5052149;28;20257;-87
2023/05/02 12:33:59;;;;;;;2.93;2.60;;;12.70;97.30;;;;;;5052113;28;20172;-86
2023/05/02 12:36:29;;;;;;;3.90;2.87;;;12.70;97.30;;;;;;5052320;28;20187;-87
2023/05/02 12:38:58;;;;;;;2.20;1.97;;;12.70;97.30;;;;;;5052162;28;20418;-87
2023/05/02 12:41:37;;;;;;;6.20;3.10;;;12.70;97.30;;;;;;5051452;28;20829;-88
2023/05/02 12:44:06;;;;;;;4.37;2.57;;;12.90;97.30;;;;;;5049809;28;20449;-87
2023/05/02 12:46:31;;;;;;;2.90;1.83;;;13.00;97.30;;;;;;5050156;28;20817;-89
2023/05/02 12:49:05;;;;;;;3.67;2.20;;;13.10;97.30;;;;;;5049594;28;20464;-87
2023/05/02 12:51:31;;;;;;;5.73;2.93;;;13.20;97.30;;;;;;5051165;28;20607;-87
2023/05/02 12:53:57;;;;;;;1.67;1.57;;;13.30;97.30;;;;;;5049148;28;20480;-88